Yukon, Missouri
Current Conditions -  °F | °C
As of 12:53 PM on Wednesday 26 Nov 2014 (Local Time) from KUNO Reporting Station
Broken Clouds Broken Clouds  
Wind Chill: 35°   Ceiling: 1300
Heat Index: 41°   Visibility: 10mi
Dew Point: 35°   Wind: 9mph
Humidity: 79%   Direction: 280°W
Pressure: 29.96"   Gusts: 18mph
Location:  37.27°N, 91.85°W
Report Text: KUNO 261853Z AUTO 28008G16KT 10SM BKN013 05/02 A2996 RMK AO2 SLP153 T00500017
Loading
Personal Weather Stations






























Interactive Weather Map New forecast layout! Learn more

10-Day Weather Forecast

Advertisements
Track Severe Weather on mobile